Time;durP1;ratioP1;P1;durP2;ratioP2;P2;SDS_P1;SDS_P2;PMS_P1;PMS_P2;Temp;Humidity;BMP_temperature;BMP_pressure;BME280_temperature;BME280_humidity;BME280_pressure;Samples;Min_cycle;Max_cycle;Signal;HPM_P1;HPM_P2
2022/01/17 00:02:24;;;;;;;;;;;7.40;99.90;;;;;;5024788;28;19917;-73
2022/01/17 00:04:49;;;;;;;;;;;7.40;99.90;;;;;;5012695;28;19921;-72
2022/01/17 00:07:15;;;;;;;;;;;7.40;99.90;;;;;;5026666;28;20027;-70
2022/01/17 00:09:41;;;;;;;;;;;7.40;99.90;;;;;;5025044;28;19932;-73
2022/01/17 00:12:07;;;;;;;;;;;7.40;99.90;;;;;;5027327;28;19917;-72
2022/01/17 00:14:39;;;;;;;;;;;7.40;99.90;;;;;;5027127;28;19917;-71
2022/01/17 00:17:22;;;;;;;;;;;7.40;99.90;;;;;;5026465;28;19921;-71
2022/01/17 00:19:53;;;;;;;;;;;7.40;99.90;;;;;;5025846;28;20428;-71
2022/01/17 00:22:20;;;;;;;;;;;7.40;99.90;;;;;;5019802;28;20005;-72
2022/01/17 00:24:46;;;;;;;;;;;7.30;99.90;;;;;;5027589;28;19909;-71
2022/01/17 00:27:12;;;;;;;;;;;7.30;99.90;;;;;;5026739;28;19927;-69
2022/01/17 00:29:38;;;;;;;;;;;7.30;99.90;;;;;;5027055;28;20114;-69
2022/01/17 00:32:04;;;;;;;;;;;7.30;99.90;;;;;;4999205;28;20341;-68
2022/01/17 00:34:30;;;;;;;;;;;7.20;99.90;;;;;;5028098;28;19940;-69
2022/01/17 00:36:55;;;;;;;;;;;7.10;99.90;;;;;;5026718;28;19909;-71
2022/01/17 00:39:21;;;;;;;;;;;7.10;99.90;;;;;;5029147;28;20309;-71
2022/01/17 00:41:46;;;;;;;;;;;7.00;99.90;;;;;;5043517;28;20009;-70
2022/01/17 00:44:12;;;;;;;;;;;7.00;99.90;;;;;;5037670;28;19914;-71
2022/01/17 00:46:37;;;;;;;;;;;6.90;99.90;;;;;;5028200;28;19924;-70
2022/01/17 00:49:03;;;;;;;;;;;6.90;99.90;;;;;;5029189;28;19952;-70
2022/01/17 00:51:29;;;;;;;;;;;6.80;99.90;;;;;;5027558;28;20264;-71
2022/01/17 00:53:54;;;;;;;;;;;6.80;99.90;;;;;;5027974;28;19917;-70
2022/01/17 00:56:21;;;;;;;;;;;6.70;99.90;;;;;;5013500;28;19988;-71
2022/01/17 00:58:46;;;;;;;;;;;6.70;99.90;;;;;;5027568;28;19917;-70
2022/01/17 01:01:12;;;;;;;;;;;6.70;99.90;;;;;;5027516;28;20279;-71
2022/01/17 01:03:38;;;;;;;;;;;6.60;99.90;;;;;;5024518;28;20404;-70
2022/01/17 01:06:04;;;;;;;;;;;6.60;99.90;;;;;;5037902;28;19935;-70
2022/01/17 01:08:29;;;;;;;;;;;6.60;99.90;;;;;;5026835;28;19909;-69
2022/01/17 01:10:55;;;;;;;;;;;6.50;99.90;;;;;;5030898;28;20370;-70
2022/01/17 01:13:24;;;;;;;;;;;6.50;99.90;;;;;;5030255;28;19913;-70
2022/01/17 01:28:54;;;;;;;;;;;6.40;99.90;;;;;;5027863;28;19955;-68
2022/01/17 01:31:29;;;;;;;;;;;6.30;99.90;;;;;;5027489;28;20341;-69
2022/01/17 01:34:02;;;;;;;;;;;6.20;99.90;;;;;;5027256;28;19919;-68
2022/01/17 01:36:29;;;;;;;;;;;6.30;99.90;;;;;;5028318;28;20596;-69
2022/01/17 01:38:54;;;;;;;;;;;6.30;99.90;;;;;;5010112;28;19937;-72
2022/01/17 01:41:20;;;;;;;;;;;6.30;99.90;;;;;;5029429;28;20328;-68
2022/01/17 01:43:46;;;;;;;;;;;6.40;99.90;;;;;;5031407;28;19936;-70
2022/01/17 01:46:14;;;;;;;;;;;6.40;99.90;;;;;;5028113;28;19928;-71
2022/01/17 01:48:40;;;;;;;;;;;6.30;99.90;;;;;;5025634;28;19916;-71
2022/01/17 01:51:05;;;;;;;;;;;6.20;99.90;;;;;;5025422;28;19913;-71
2022/01/17 01:53:31;;;;;;;;;;;6.10;99.90;;;;;;5025901;28;19944;-69
2022/01/17 01:55:57;;;;;;;;;;;6.20;99.90;;;;;;5028372;28;20004;-70
2022/01/17 01:58:23;;;;;;;;;;;6.10;99.90;;;;;;5007757;28;19917;-71
2022/01/17 02:00:49;;;;;;;;;;;6.00;99.90;;;;;;5025972;28;19920;-71
2022/01/17 02:03:15;;;;;;;;;;;6.00;99.90;;;;;;5026376;28;19917;-69
2022/01/17 02:05:42;;;;;;;;;;;6.00;99.90;;;;;;5026291;28;19913;-70
2022/01/17 02:08:08;;;;;;;;;;;6.00;99.90;;;;;;5026698;28;19913;-70
2022/01/17 02:10:34;;;;;;;;;;;6.10;99.90;;;;;;5025586;28;20662;-70
2022/01/17 02:12:59;;;;;;;;;;;6.00;99.90;;;;;;5025645;28;19917;-70
2022/01/17 02:15:25;;;;;;;;;;;6.10;99.90;;;;;;5026049;28;19948;-68
2022/01/17 02:17:55;;;;;;;;;;;6.10;99.90;;;;;;5007745;28;19913;-72
2022/01/17 02:20:23;;;;;;;;;;;6.00;99.90;;;;;;5007956;28;19913;-70
2022/01/17 02:22:51;;;;;;;;;;;5.90;99.90;;;;;;5025941;28;20564;-71
2022/01/17 02:25:17;;;;;;;;;;;5.90;99.90;;;;;;5026661;28;19936;-69
2022/01/17 02:27:42;;;;;;;;;;;6.00;99.90;;;;;;5010174;28;20346;-70
2022/01/17 02:30:08;;;;;;;;;;;5.90;99.90;;;;;;5025633;28;19929;-70
2022/01/17 02:32:34;;;;;;;;;;;5.80;99.90;;;;;;5026616;28;19913;-69
2022/01/17 02:35:32;;;;;;;;;;;5.70;99.90;;;;;;5026829;28;19913;-70
2022/01/17 02:37:58;;;;;;;;;;;5.60;99.90;;;;;;4982192;28;19992;-74
2022/01/17 02:40:23;;;;;;;;;;;5.70;99.90;;;;;;5025511;28;20004;-71
2022/01/17 02:43:00;;;;;;;;;;;5.60;99.90;;;;;;5008522;28;20240;-69
2022/01/17 02:45:35;;;;;;;;;;;5.50;99.90;;;;;;5026535;28;20278;-71
2022/01/17 02:48:04;;;;;;;;;;;5.50;99.90;;;;;;5018208;28;19925;-70
2022/01/17 02:50:29;;;;;;;;;;;5.50;99.90;;;;;;5027852;28;19920;-69
2022/01/17 02:53:02;;;;;;;;;;;5.50;99.90;;;;;;5025886;28;19909;-68
2022/01/17 02:55:28;;;;;;;;;;;5.40;99.90;;;;;;5026713;28;19917;-69
2022/01/17 02:57:54;;;;;;;;;;;5.40;99.90;;;;;;5025927;28;19913;-70
2022/01/17 03:00:20;;;;;;;;;;;5.40;99.90;;;;;;5025251;28;20553;-72
2022/01/17 03:02:48;;;;;;;;;;;5.50;99.90;;;;;;5025075;28;19914;-69
2022/01/17 03:05:14;;;;;;;;;;;5.50;99.90;;;;;;5025737;28;19913;-71
2022/01/17 03:07:40;;;;;;;;;;;5.40;99.90;;;;;;5024714;28;19913;-69
2022/01/17 03:10:11;;;;;;;;;;;5.30;99.90;;;;;;5025558;28;20078;-69
2022/01/17 03:12:36;;;;;;;;;;;5.30;99.90;;;;;;5023553;28;20444;-70
2022/01/17 03:15:02;;;;;;;;;;;5.30;99.90;;;;;;5030124;28;19917;-70
2022/01/17 03:17:29;;;;;;;;;;;5.30;99.90;;;;;;5034001;28;20027;-71
2022/01/17 03:19:55;;;;;;;;;;;5.30;99.90;;;;;;5028428;28;19913;-71
2022/01/17 03:22:20;;;;;;;;;;;5.30;99.90;;;;;;5026110;28;20358;-70
2022/01/17 03:24:46;;;;;;;;;;;5.30;99.90;;;;;;5029120;28;19924;-70
2022/01/17 03:27:11;;;;;;;;;;;5.30;99.90;;;;;;5033784;28;19909;-70
2022/01/17 03:29:37;;;;;;;;;;;5.20;99.90;;;;;;5026614;28;19920;-71
2022/01/17 03:32:02;;;;;;;;;;;5.20;99.90;;;;;;5027399;28;21510;-70
2022/01/17 03:34:28;;;;;;;;;;;5.10;99.90;;;;;;5031291;28;19993;-72
2022/01/17 03:36:53;;;;;;;;;;;5.20;99.90;;;;;;5037012;28;19913;-69
2022/01/17 03:39:19;;;;;;;;;;;5.20;99.90;;;;;;5036516;28;19913;-72
2022/01/17 03:41:44;;;;;;;;;;;5.20;99.90;;;;;;5037557;28;19909;-71
2022/01/17 03:44:10;;;;;;;;;;;5.20;99.90;;;;;;5037460;28;19980;-71
2022/01/17 03:46:35;;;;;;;;;;;5.10;99.90;;;;;;5033567;28;19917;-71
2022/01/17 03:49:01;;;;;;;;;;;5.20;99.90;;;;;;5026397;28;20646;-68
2022/01/17 03:51:27;;;;;;;;;;;5.10;99.90;;;;;;5012309;28;19909;-69
2022/01/17 03:53:52;;;;;;;;;;;5.20;99.90;;;;;;5027335;28;19921;-71
2022/01/17 03:56:18;;;;;;;;;;;5.20;99.90;;;;;;5025517;28;20566;-71
2022/01/17 03:58:45;;;;;;;;;;;5.20;99.90;;;;;;5024998;28;19909;-73
2022/01/17 04:01:10;;;;;;;;;;;5.10;99.90;;;;;;5023852;28;19920;-71
2022/01/17 04:03:35;;;;;;;;;;;5.10;99.90;;;;;;5025281;28;19910;-69
2022/01/17 04:06:01;;;;;;;;;;;5.10;99.90;;;;;;5024521;28;19913;-69
2022/01/17 04:08:26;;;;;;;;;;;5.10;99.90;;;;;;5024616;28;19913;-70
2022/01/17 04:10:52;;;;;;;;;;;5.10;99.90;;;;;;5024016;28;20425;-70
2022/01/17 04:13:18;;;;;;;;;;;5.20;99.90;;;;;;5024952;28;19909;-70
2022/01/17 04:15:44;;;;;;;;;;;5.20;99.90;;;;;;5028491;28;19945;-69
2022/01/17 04:18:10;;;;;;;;;;;5.30;99.90;;;;;;5029519;28;19996;-69
2022/01/17 04:20:37;;;;;;;;;;;5.20;99.90;;;;;;5030468;28;20496;-71
2022/01/17 04:23:06;;;;;;;;;;;5.20;99.90;;;;;;5028005;28;19967;-70
2022/01/17 04:25:32;;;;;;;;;;;5.30;99.90;;;;;;5028297;28;20295;-69
2022/01/17 04:27:58;;;;;;;;;;;5.30;99.90;;;;;;5027652;28;20353;-68
2022/01/17 04:30:24;;;;;;;;;;;5.30;99.90;;;;;;5027717;28;19917;-69
2022/01/17 04:32:50;;;;;;;;;;;5.30;99.90;;;;;;5027899;28;19913;-69
2022/01/17 04:35:20;;;;;;;;;;;5.30;99.90;;;;;;5029031;28;19917;-69
2022/01/17 04:37:59;;;;;;;;;;;5.30;99.90;;;;;;5028499;28;19913;-70
2022/01/17 04:40:25;;;;;;;;;;;5.30;99.90;;;;;;5030995;28;19909;-69
2022/01/17 04:42:54;;;;;;;;;;;5.30;99.90;;;;;;5029846;28;19964;-70
2022/01/17 04:45:20;;;;;;;;;;;5.30;99.90;;;;;;5027878;28;19952;-71
2022/01/17 04:47:50;;;;;;;;;;;5.30;99.90;;;;;;5028640;28;19909;-72
2022/01/17 04:50:18;;;;;;;;;;;5.30;99.90;;;;;;5031856;28;19909;-68
2022/01/17 04:52:43;;;;;;;;;;;5.30;99.90;;;;;;5030580;28;19913;-73
2022/01/17 04:55:10;;;;;;;;;;;5.30;99.90;;;;;;5031949;28;20025;-68
2022/01/17 04:57:38;;;;;;;;;;;5.30;99.90;;;;;;5030468;28;20133;-71
2022/01/17 05:00:05;;;;;;;;;;;5.30;99.90;;;;;;5003810;28;19966;-70
2022/01/17 05:02:31;;;;;;;;;;;5.30;99.90;;;;;;5028547;28;19913;-70
2022/01/17 05:04:56;;;;;;;;;;;5.30;99.90;;;;;;5027306;28;19917;-69
2022/01/17 05:07:21;;;;;;;;;;;5.30;99.90;;;;;;5027582;28;20568;-70
2022/01/17 05:09:47;;;;;;;;;;;5.30;99.90;;;;;;5027132;28;19920;-70
2022/01/17 05:12:13;;;;;;;;;;;5.20;99.90;;;;;;5027126;28;19916;-72
2022/01/17 05:14:46;;;;;;;;;;;5.20;99.90;;;;;;5027417;28;19921;-70
2022/01/17 05:19:57;;;;;;;;;;;5.30;99.90;;;;;;5034866;28;20394;-71
2022/01/17 05:22:24;;;;;;;;;;;5.20;99.90;;;;;;5026162;28;19913;-68
2022/01/17 05:24:49;;;;;;;;;;;5.30;99.90;;;;;;5026668;28;19909;-69
2022/01/17 05:27:15;;;;;;;;;;;5.30;99.90;;;;;;5027402;28;19917;-70
2022/01/17 05:29:40;;;;;;;;;;;5.30;99.90;;;;;;5026616;28;19921;-70
2022/01/17 05:32:06;;;;;;;;;;;5.30;99.90;;;;;;5026131;28;19921;-70
2022/01/17 05:34:34;;;;;;;;;;;5.40;99.90;;;;;;5026815;28;19917;-70
2022/01/17 05:37:03;;;;;;;;;;;5.40;99.90;;;;;;5027746;28;19914;-70
2022/01/17 05:39:28;;;;;;;;;;;5.40;99.90;;;;;;5019386;28;19909;-69
2022/01/17 05:41:54;;;;;;;;;;;5.50;99.90;;;;;;5020366;28;19924;-70
2022/01/17 05:44:19;;;;;;;;;;;5.50;99.90;;;;;;5018250;28;19923;-69
2022/01/17 05:46:45;;;;;;;;;;;5.50;99.90;;;;;;5018893;28;20552;-73
2022/01/17 05:49:10;;;;;;;;;;;5.60;99.90;;;;;;5021802;28;20398;-70
2022/01/17 05:51:36;;;;;;;;;;;5.60;99.90;;;;;;5026019;28;19913;-70
2022/01/17 05:54:02;;;;;;;;;;;5.60;99.90;;;;;;5013814;28;19972;-69
2022/01/17 05:56:27;;;;;;;;;;;5.60;99.90;;;;;;5016708;28;19960;-70
2022/01/17 05:58:53;;;;;;;;;;;5.70;99.90;;;;;;5026695;28;20063;-70
2022/01/17 06:01:18;;;;;;;;;;;5.60;99.90;;;;;;5020796;28;20394;-70
2022/01/17 06:03:43;;;;;;;;;;;5.70;99.90;;;;;;5017136;28;19920;-70
2022/01/17 06:06:09;;;;;;;;;;;5.70;99.90;;;;;;5020286;28;20376;-71
2022/01/17 06:08:34;;;;;;;;;;;5.70;99.90;;;;;;5029207;28;19909;-71
2022/01/17 06:11:00;;;;;;;;;;;5.70;99.90;;;;;;5033280;28;20012;-72
2022/01/17 06:13:26;;;;;;;;;;;5.70;99.90;;;;;;5028005;28;20402;-69
2022/01/17 06:15:51;;;;;;;;;;;5.70;99.90;;;;;;5025475;28;20278;-70
2022/01/17 06:18:17;;;;;;;;;;;5.70;99.90;;;;;;5026001;28;19979;-70
2022/01/17 06:20:42;;;;;;;;;;;5.70;99.90;;;;;;5028701;28;19913;-70
2022/01/17 06:23:08;;;;;;;;;;;5.70;99.90;;;;;;5027830;28;20847;-71
2022/01/17 06:25:33;;;;;;;;;;;5.70;99.90;;;;;;5018780;28;19921;-69
2022/01/17 06:27:59;;;;;;;;;;;5.60;99.90;;;;;;5016831;28;19914;-72
2022/01/17 06:30:25;;;;;;;;;;;5.70;99.90;;;;;;5015554;28;20075;-70
2022/01/17 06:32:51;;;;;;;;;;;5.60;99.90;;;;;;5021182;28;19901;-68
2022/01/17 06:35:16;;;;;;;;;;;5.60;99.90;;;;;;5034658;28;19913;-70
2022/01/17 06:37:44;;;;;;;;;;;5.60;99.90;;;;;;5028915;28;19920;-71
2022/01/17 06:40:10;;;;;;;;;;;5.60;99.90;;;;;;5032493;28;20394;-68
2022/01/17 06:42:36;;;;;;;;;;;5.60;99.90;;;;;;5009298;28;20008;-70
2022/01/17 06:45:04;;;;;;;;;;;5.70;99.90;;;;;;5027300;28;19948;-70
2022/01/17 06:47:33;;;;;;;;;;;5.70;99.90;;;;;;5027300;28;19916;-71
2022/01/17 06:49:59;;;;;;;;;;;5.60;99.90;;;;;;5026445;28;19996;-69
2022/01/17 06:52:24;;;;;;;;;;;5.60;99.90;;;;;;5027927;28;19944;-70
2022/01/17 06:54:52;;;;;;;;;;;5.60;99.90;;;;;;5023094;28;19952;-68
2022/01/17 06:57:18;;;;;;;;;;;5.60;99.90;;;;;;5018753;28;19919;-70
2022/01/17 06:59:43;;;;;;;;;;;5.60;99.90;;;;;;5035976;28;20490;-70
2022/01/17 07:02:09;;;;;;;;;;;5.50;99.90;;;;;;5026474;28;19909;-70
2022/01/17 07:04:34;;;;;;;;;;;5.60;99.90;;;;;;5023670;28;19913;-71
2022/01/17 07:07:00;;;;;;;;;;;5.60;99.90;;;;;;5039115;28;19917;-69
2022/01/17 07:09:28;;;;;;;;;;;5.60;99.90;;;;;;5029259;28;19922;-69
2022/01/17 07:11:58;;;;;;;;;;;5.60;99.90;;;;;;5020532;28;19964;-69
2022/01/17 07:14:24;;;;;;;;;;;5.60;99.90;;;;;;5014785;28;19917;-73
2022/01/17 07:16:50;;;;;;;;;;;5.70;99.90;;;;;;5018239;28;19955;-73
2022/01/17 07:19:15;;;;;;;;;;;5.60;99.90;;;;;;5018802;28;19914;-69
2022/01/17 07:21:40;;;;;;;;;;;5.60;99.90;;;;;;5014994;28;19988;-69
2022/01/17 07:24:06;;;;;;;;;;;5.60;99.90;;;;;;5019657;28;19910;-72
2022/01/17 07:26:32;;;;;;;;;;;5.70;99.90;;;;;;5019399;28;19909;-71
2022/01/17 07:28:57;;;;;;;;;;;5.70;99.90;;;;;;5022362;28;19917;-71
2022/01/17 07:31:23;;;;;;;;;;;5.70;99.90;;;;;;5017352;28;20431;-69
2022/01/17 07:33:48;;;;;;;;;;;5.70;99.90;;;;;;5023016;28;19943;-74
2022/01/17 07:36:18;;;;;;;;;;;5.70;99.90;;;;;;5026129;28;20149;-70
2022/01/17 07:38:44;;;;;;;;;;;5.70;99.90;;;;;;5026351;28;20558;-70
2022/01/17 07:41:09;;;;;;;;;;;5.70;99.90;;;;;;5027081;28;19917;-72
2022/01/17 07:43:37;;;;;;;;;;;5.70;99.90;;;;;;5025509;28;19909;-74
2022/01/17 07:46:05;;;;;;;;;;;5.80;99.90;;;;;;5018172;28;20700;-72
2022/01/17 07:51:16;;;;;;;;;;;5.70;99.90;;;;;;5015873;28;19998;-71
2022/01/17 07:53:42;;;;;;;;;;;5.70;99.90;;;;;;5005644;28;19924;-75
2022/01/17 07:56:07;;;;;;;;;;;5.70;99.90;;;;;;5003916;28;19913;-72
2022/01/17 07:58:33;;;;;;;;;;;5.70;99.90;;;;;;5003407;28;19943;-73
2022/01/17 08:00:58;;;;;;;;;;;5.70;99.90;;;;;;5034422;28;20354;-71
2022/01/17 08:03:24;;;;;;;;;;;5.70;99.90;;;;;;5028044;28;19916;-70
2022/01/17 08:05:49;;;;;;;;;;;5.70;99.90;;;;;;5028355;28;19913;-72
2022/01/17 08:08:14;;;;;;;;;;;5.70;99.90;;;;;;5026723;28;20606;-73
2022/01/17 08:10:40;;;;;;;;;;;5.70;99.90;;;;;;5026456;28;19909;-72
2022/01/17 08:13:06;;;;;;;;;;;5.80;99.90;;;;;;5019265;28;20330;-72
2022/01/17 08:15:31;;;;;;;;;;;5.80;99.90;;;;;;5024843;28;20000;-74
2022/01/17 08:17:57;;;;;;;;;;;5.80;99.90;;;;;;5002674;28;19948;-69
2022/01/17 08:20:22;;;;;;;;;;;5.80;99.90;;;;;;5020113;28;19917;-70
2022/01/17 08:22:48;;;;;;;;;;;5.90;99.90;;;;;;5035155;28;19916;-70
2022/01/17 08:25:15;;;;;;;;;;;5.80;99.90;;;;;;5027809;28;19916;-71
2022/01/17 08:27:40;;;;;;;;;;;5.90;99.90;;;;;;5010032;28;20295;-71
2022/01/17 08:30:06;;;;;;;;;;;5.90;99.90;;;;;;5021943;28;20373;-70
2022/01/17 08:32:32;;;;;;;;;;;5.90;99.90;;;;;;5037322;28;19913;-71
2022/01/17 08:34:58;;;;;;;;;;;5.90;99.90;;;;;;5009255;28;19921;-68
2022/01/17 08:37:25;;;;;;;;;;;6.00;99.90;;;;;;5027236;28;20605;-70
2022/01/17 08:39:50;;;;;;;;;;;6.10;99.90;;;;;;5026306;28;20177;-71
2022/01/17 08:42:16;;;;;;;;;;;6.00;99.90;;;;;;5025812;28;19996;-70
2022/01/17 08:44:48;;;;;;;;;;;6.00;99.90;;;;;;5009802;28;19947;-71
2022/01/17 08:47:14;;;;;;;;;;;6.00;99.90;;;;;;5039923;28;20008;-71
2022/01/17 08:49:40;;;;;;;;;;;6.00;99.90;;;;;;5002675;28;20016;-73
2022/01/17 08:52:05;;;;;;;;;;;6.00;99.90;;;;;;5008461;28;20407;-71
2022/01/17 08:54:31;;;;;;;;;;;6.10;99.90;;;;;;5025299;28;19920;-73
2022/01/17 08:56:56;;;;;;;;;;;6.10;99.90;;;;;;5030031;28;19913;-70
2022/01/17 08:59:22;;;;;;;;;;;6.10;99.90;;;;;;5014119;28;19948;-72
2022/01/17 09:01:47;;;;;;;;;;;6.20;99.90;;;;;;5020792;28;19916;-70
2022/01/17 09:04:13;;;;;;;;;;;6.20;99.90;;;;;;5019974;28;19960;-76
2022/01/17 09:06:38;;;;;;;;;;;6.30;99.90;;;;;;5017275;28;19917;-69
2022/01/17 09:09:04;;;;;;;;;;;6.20;99.90;;;;;;5029716;28;20099;-70
2022/01/17 09:11:29;;;;;;;;;;;6.30;99.90;;;;;;5041120;28;20278;-69
2022/01/17 09:13:55;;;;;;;;;;;6.30;99.90;;;;;;5034785;28;20620;-70
2022/01/17 09:16:21;;;;;;;;;;;6.30;99.90;;;;;;5009481;28;20333;-70
2022/01/17 09:18:46;;;;;;;;;;;6.40;99.90;;;;;;5024952;28;19920;-71
2022/01/17 09:21:12;;;;;;;;;;;6.40;99.90;;;;;;5025269;28;19913;-69
2022/01/17 09:23:38;;;;;;;;;;;6.40;99.90;;;;;;5024893;28;20366;-71
2022/01/17 09:26:04;;;;;;;;;;;6.50;99.90;;;;;;5023111;28;19913;-71
2022/01/17 09:28:30;;;;;;;;;;;6.50;99.90;;;;;;5031927;28;20362;-71
2022/01/17 09:30:55;;;;;;;;;;;6.50;99.90;;;;;;5023508;28;19927;-71
2022/01/17 09:33:21;;;;;;;;;;;6.50;99.90;;;;;;5025040;28;19909;-71
2022/01/17 09:35:47;;;;;;;;;;;6.60;99.90;;;;;;5023363;28;19917;-71
2022/01/17 09:38:12;;;;;;;;;;;6.60;99.90;;;;;;5022337;28;19909;-71
2022/01/17 09:40:38;;;;;;;;;;;6.60;99.90;;;;;;5021551;28;19994;-71
2022/01/17 09:43:03;;;;;;;;;;;6.70;99.90;;;;;;5005484;28;20355;-68
2022/01/17 09:45:30;;;;;;;;;;;6.70;99.90;;;;;;5007216;28;19928;-70
2022/01/17 09:47:55;;;;;;;;;;;6.70;99.90;;;;;;5023032;28;19939;-72
2022/01/17 09:50:31;;;;;;;;;;;6.80;99.90;;;;;;5023845;28;20551;-71
2022/01/17 09:52:58;;;;;;;;;;;6.80;99.90;;;;;;5022879;28;20498;-69
2022/01/17 09:55:25;;;;;;;;;;;6.90;99.90;;;;;;5022411;28;19960;-72
2022/01/17 09:57:50;;;;;;;;;;;6.90;99.90;;;;;;5022655;28;19909;-70
2022/01/17 10:00:16;;;;;;;;;;;6.90;99.90;;;;;;5022754;28;20314;-70
2022/01/17 10:02:42;;;;;;;;;;;6.90;99.90;;;;;;5021144;28;19909;-69
2022/01/17 10:05:09;;;;;;;;;;;6.90;99.90;;;;;;5026356;28;19974;-69
2022/01/17 10:07:49;;;;;;;;;;;7.00;99.90;;;;;;5008221;28;20432;-70
2022/01/17 10:10:15;;;;;;;;;;;7.00;99.90;;;;;;5020434;28;19914;-70
2022/01/17 10:12:40;;;;;;;;;;;7.00;99.90;;;;;;5042880;28;20023;-69
2022/01/17 10:15:11;;;;;;;;;;;7.20;99.90;;;;;;5030566;28;19914;-69
2022/01/17 10:17:44;;;;;;;;;;;7.20;99.90;;;;;;5027590;28;19940;-70
2022/01/17 10:20:13;;;;;;;;;;;7.20;99.90;;;;;;5027878;28;20330;-69
2022/01/17 10:22:50;;;;;;;;;;;7.20;99.90;;;;;;5029347;28;20011;-69
2022/01/17 10:25:50;;;;;;;;;;;7.30;99.90;;;;;;5029706;28;19909;-68
2022/01/17 10:31:34;;;;;;;;;;;7.40;99.90;;;;;;5028983;28;19917;-69
2022/01/17 10:34:54;;;;;;;;;;;7.40;99.90;;;;;;5029874;28;20425;-69
2022/01/17 10:36:46;;;;;;;;;;;7.50;99.90;;;;;;5028717;28;19940;-69
2022/01/17 10:39:12;;;;;;;;;;;7.60;99.90;;;;;;5009206;28;19940;-69
2022/01/17 10:41:38;;;;;;;;;;;7.50;99.90;;;;;;5022112;28;19928;-70
2022/01/17 10:44:04;;;;;;;;;;;7.60;99.90;;;;;;5021088;28;19913;-70
2022/01/17 10:46:29;;;;;;;;;;;7.60;99.90;;;;;;5023600;28;19914;-70
2022/01/17 10:48:56;;;;;;;;;;;7.70;99.90;;;;;;5013659;28;20306;-72
2022/01/17 10:51:29;;;;;;;;;;;7.70;99.90;;;;;;5013956;28;19976;-70
2022/01/17 10:53:55;;;;;;;;;;;7.80;99.90;;;;;;5013785;28;19909;-71
2022/01/17 10:56:24;;;;;;;;;;;7.90;99.90;;;;;;5011255;28;20362;-70
2022/01/17 10:59:00;;;;;;;;;;;7.90;99.90;;;;;;4999104;28;20305;-72
2022/01/17 11:01:25;;;;;;;;;;;8.00;99.90;;;;;;5002728;28;19972;-72
2022/01/17 11:03:57;;;;;;;;;;;8.00;99.90;;;;;;5006971;28;19956;-70
2022/01/17 11:06:22;;;;;;;;;;;8.00;99.90;;;;;;5004341;28;19909;-72
2022/01/17 11:08:48;;;;;;;;;;;8.00;99.90;;;;;;5017045;28;19921;-71
2022/01/17 11:11:14;;;;;;;;;;;8.10;99.90;;;;;;5023009;28;19909;-70
2022/01/17 11:13:43;;;;;;;;;;;8.10;99.90;;;;;;5019550;28;19913;-70
2022/01/17 11:16:11;;;;;;;;;;;8.10;99.90;;;;;;5027106;28;19921;-71
2022/01/17 11:18:37;;;;;;;;;;;8.10;99.90;;;;;;5012727;28;19915;-71
2022/01/17 11:21:17;;;;;;;;;;;8.10;99.90;;;;;;5022634;28;19917;-70
2022/01/17 11:23:45;;;;;;;;;;;8.20;99.90;;;;;;5018780;28;19913;-70
2022/01/17 11:26:11;;;;;;;;;;;8.10;99.90;;;;;;5020442;28;19963;-70
2022/01/17 11:28:37;;;;;;;;;;;8.30;99.90;;;;;;5011811;28;19913;-70
2022/01/17 11:31:07;;;;;;;;;;;8.30;99.90;;;;;;5022255;28;19917;-70
2022/01/17 11:33:34;;;;;;;;;;;8.30;99.90;;;;;;5032515;28;20275;-70
2022/01/17 11:35:59;;;;;;;;;;;8.30;99.90;;;;;;5022864;28;19913;-70
2022/01/17 11:38:33;;;;;;;;;;;8.30;99.90;;;;;;5047175;28;19921;-70
2022/01/17 11:41:01;;;;;;;;;;;8.30;99.90;;;;;;5045664;28;22199;-74
2022/01/17 11:43:33;;;;;;;;;;;8.30;99.90;;;;;;5049210;28;19915;-69
2022/01/17 11:46:00;;;;;;;;;;;8.40;99.90;;;;;;5036891;28;20380;-69
2022/01/17 11:48:30;;;;;;;;;;;8.40;99.90;;;;;;5030279;28;19979;-75
2022/01/17 11:51:10;;;;;;;;;;;8.40;99.90;;;;;;5025282;28;19945;-72
2022/01/17 11:53:36;;;;;;;;;;;8.40;99.90;;;;;;5024115;28;19915;-73
2022/01/17 11:56:02;;;;;;;;;;;8.40;99.90;;;;;;5024018;28;19917;-74
2022/01/17 11:58:31;;;;;;;;;;;8.40;99.90;;;;;;5023555;28;19913;-71
2022/01/17 12:01:08;;;;;;;;;;;8.50;99.90;;;;;;5018650;28;19992;-70
2022/01/17 12:03:41;;;;;;;;;;;8.50;99.90;;;;;;5022888;28;19949;-71
2022/01/17 12:06:25;;;;;;;;;;;8.50;99.90;;;;;;5031272;28;19970;-71
2022/01/17 12:09:11;;;;;;;;;;;8.50;99.90;;;;;;5024463;28;19959;-72
2022/01/17 12:11:37;;;;;;;;;;;8.50;99.90;;;;;;5016563;28;20349;-71
2022/01/17 12:14:22;;;;;;;;;;;8.50;99.90;;;;;;5021503;28;20028;-70
2022/01/17 12:16:48;;;;;;;;;;;8.60;99.90;;;;;;5031062;28;19916;-71
2022/01/17 12:19:13;;;;;;;;;;;8.60;99.90;;;;;;5039677;28;19932;-70
2022/01/17 12:21:41;;;;;;;;;;;8.70;99.90;;;;;;5047164;28;19909;-69
2022/01/17 12:24:18;;;;;;;;;;;8.70;99.90;;;;;;5029240;28;19917;-70
2022/01/17 12:27:02;;;;;;;;;;;8.60;99.90;;;;;;5027288;28;19915;-72
2022/01/17 12:29:35;;;;;;;;;;;8.70;99.90;;;;;;5026652;28;20037;-73
2022/01/17 12:32:00;;;;;;;;;;;8.70;99.90;;;;;;5025334;28;19909;-76
2022/01/17 12:34:26;;;;;;;;;;;8.80;99.90;;;;;;5009013;28;19947;-71
2022/01/17 12:36:53;;;;;;;;;;;8.80;99.90;;;;;;5030681;28;19909;-71
2022/01/17 12:39:20;;;;;;;;;;;8.90;99.90;;;;;;5030463;28;19915;-72
2022/01/17 12:41:47;;;;;;;;;;;8.90;99.90;;;;;;5029864;28;19959;-71
2022/01/17 12:44:20;;;;;;;;;;;8.90;99.90;;;;;;5031001;28;19916;-72
2022/01/17 12:46:47;;;;;;;;;;;8.90;99.90;;;;;;5029651;28;19910;-72
2022/01/17 12:49:13;;;;;;;;;;;8.90;99.90;;;;;;5031183;28;19970;-71
2022/01/17 12:51:40;;;;;;;;;;;9.00;99.90;;;;;;5042613;28;19966;-72
2022/01/17 12:54:09;;;;;;;;;;;9.00;99.90;;;;;;5021910;28;19916;-71
2022/01/17 12:56:35;;;;;;;;;;;9.00;99.90;;;;;;5040995;28;19943;-71
2022/01/17 12:59:02;;;;;;;;;;;9.00;99.90;;;;;;5038504;28;20418;-71
2022/01/17 13:01:27;;;;;;;;;;;9.00;99.90;;;;;;5037806;28;19909;-72
2022/01/17 13:04:01;;;;;;;;;;;9.00;99.90;;;;;;5033874;28;19913;-73
2022/01/17 13:06:26;;;;;;;;;;;9.00;99.90;;;;;;5012505;28;20315;-72
2022/01/17 13:08:53;;;;;;;;;;;9.00;99.90;;;;;;5030469;28;19921;-71
2022/01/17 13:11:20;;;;;;;;;;;9.00;99.90;;;;;;5014975;28;19971;-71
2022/01/17 13:13:47;;;;;;;;;;;9.10;99.90;;;;;;5012565;28;19910;-71
2022/01/17 13:16:13;;;;;;;;;;;9.10;99.90;;;;;;5026973;28;19992;-71
2022/01/17 13:18:39;;;;;;;;;;;9.10;99.90;;;;;;5028113;28;19963;-70
2022/01/17 13:21:05;;;;;;;;;;;9.00;99.90;;;;;;5028426;28;19909;-71
2022/01/17 13:23:37;;;;;;;;;;;9.00;99.90;;;;;;5014032;28;19917;-72
2022/01/17 13:26:03;;;;;;;;;;;9.20;99.90;;;;;;5031166;28;20246;-72
2022/01/17 13:28:28;;;;;;;;;;;9.40;99.90;;;;;;5022989;28;20362;-71
2022/01/17 13:30:54;;;;;;;;;;;9.30;99.90;;;;;;5038620;28;19921;-69
2022/01/17 13:33:20;;;;;;;;;;;9.20;99.90;;;;;;5021830;28;19914;-71
2022/01/17 13:35:46;;;;;;;;;;;9.10;99.90;;;;;;5013559;28;19917;-71
2022/01/17 13:38:25;;;;;;;;;;;9.10;99.90;;;;;;4997476;28;19909;-71
2022/01/17 13:40:55;;;;;;;;;;;9.20;99.90;;;;;;5000596;28;19952;-71
2022/01/17 13:43:21;;;;;;;;;;;9.20;99.90;;;;;;5015334;28;19962;-71
2022/01/17 13:45:47;;;;;;;;;;;9.10;99.90;;;;;;5020411;28;20366;-71
2022/01/17 13:48:17;;;;;;;;;;;9.10;99.90;;;;;;5009961;28;20357;-71
2022/01/17 13:51:02;;;;;;;;;;;9.10;99.90;;;;;;5011776;28;19917;-70
2022/01/17 13:53:30;;;;;;;;;;;9.10;99.90;;;;;;5022477;28;19921;-70
2022/01/17 13:55:57;;;;;;;;;;;9.20;99.90;;;;;;5012364;28;20537;-72
2022/01/17 13:58:26;;;;;;;;;;;9.20;99.90;;;;;;5023914;28;19916;-71
2022/01/17 14:00:55;;;;;;;;;;;9.20;99.90;;;;;;5028185;28;20595;-71
2022/01/17 14:03:22;;;;;;;;;;;9.20;99.90;;;;;;5026258;28;19909;-71
2022/01/17 14:05:49;;;;;;;;;;;9.20;99.90;;;;;;5036564;28;19917;-72
2022/01/17 14:08:34;;;;;;;;;;;9.30;99.90;;;;;;5026430;28;19909;-70
2022/01/17 14:11:00;;;;;;;;;;;9.30;99.90;;;;;;5004717;28;19909;-71
2022/01/17 14:13:27;;;;;;;;;;;9.30;99.90;;;;;;5031644;28;19909;-71
2022/01/17 14:15:53;;;;;;;;;;;9.30;99.90;;;;;;5035831;28;20420;-71
2022/01/17 14:18:18;;;;;;;;;;;9.20;99.90;;;;;;5012871;28;20749;-72
2022/01/17 14:20:55;;;;;;;;;;;9.20;99.90;;;;;;5024942;28;19920;-72
2022/01/17 14:23:26;;;;;;;;;;;9.20;99.90;;;;;;5024731;28;19913;-72
2022/01/17 14:25:51;;;;;;;;;;;9.20;99.90;;;;;;5024345;28;19960;-71
2022/01/17 14:28:18;;;;;;;;;;;9.20;99.90;;;;;;5009294;28;20427;-71
2022/01/17 14:30:44;;;;;;;;;;;9.20;99.90;;;;;;5026015;28;19996;-71
2022/01/17 14:33:13;;;;;;;;;;;9.20;99.90;;;;;;5026746;28;19979;-70
2022/01/17 14:35:57;;;;;;;;;;;9.20;99.90;;;;;;5003902;28;19964;-72
2022/01/17 14:38:23;;;;;;;;;;;9.20;99.90;;;;;;5022300;28;19913;-71
2022/01/17 14:40:51;;;;;;;;;;;9.20;99.90;;;;;;5014780;28;19920;-72
2022/01/17 14:43:17;;;;;;;;;;;9.20;99.90;;;;;;5006618;28;19917;-71
2022/01/17 14:45:49;;;;;;;;;;;9.20;99.90;;;;;;5036495;28;19912;-71
2022/01/17 14:48:14;;;;;;;;;;;9.10;99.90;;;;;;5055132;28;19897;-71
2022/01/17 14:50:40;;;;;;;;;;;9.10;99.90;;;;;;5057952;28;20024;-71
2022/01/17 14:53:16;;;;;;;;;;;9.10;99.90;;;;;;5058509;28;19935;-70
2022/01/17 15:01:27;;;;;;;;;;;9.10;99.90;;;;;;5060979;28;19931;-69